sensor_id;sensor_type;location;lat;lon;timestamp;temperature;humidity
11840;DHT22;5979;50.800;4.904;2023-11-21T00:00:15;9.70;99.90
11840;DHT22;5979;50.800;4.904;2023-11-21T00:02:41;9.70;99.90
11840;DHT22;5979;50.800;4.904;2023-11-21T00:05:11;9.70;99.90
11840;DHT22;5979;50.800;4.904;2023-11-21T00:07:39;9.70;99.90
11840;DHT22;5979;50.800;4.904;2023-11-21T00:10:06;9.70;99.90
11840;DHT22;5979;50.800;4.904;2023-11-21T00:12:32;9.70;99.90
11840;DHT22;5979;50.800;4.904;2023-11-21T00:14:59;9.70;99.90
11840;DHT22;5979;50.800;4.904;2023-11-21T00:17:25;9.70;99.90
11840;DHT22;5979;50.800;4.904;2023-11-21T00:19:50;9.70;99.90
11840;DHT22;5979;50.800;4.904;2023-11-21T00:22:24;9.70;99.90
11840;DHT22;5979;50.800;4.904;2023-11-21T00:24:51;9.70;99.90
11840;DHT22;5979;50.800;4.904;2023-11-21T00:27:16;9.60;99.90
11840;DHT22;5979;50.800;4.904;2023-11-21T00:29:42;9.70;99.90
11840;DHT22;5979;50.800;4.904;2023-11-21T00:32:08;9.70;99.90
11840;DHT22;5979;50.800;4.904;2023-11-21T00:34:34;9.70;99.90
11840;DHT22;5979;50.800;4.904;2023-11-21T00:37:00;9.70;99.90
11840;DHT22;5979;50.800;4.904;2023-11-21T00:39:25;9.70;99.90
11840;DHT22;5979;50.800;4.904;2023-11-21T00:41:52;9.70;99.90
11840;DHT22;5979;50.800;4.904;2023-11-21T00:44:17;9.80;99.90
11840;DHT22;5979;50.800;4.904;2023-11-21T00:46:43;9.80;99.90
11840;DHT22;5979;50.800;4.904;2023-11-21T00:49:09;9.80;99.90
11840;DHT22;5979;50.800;4.904;2023-11-21T00:51:34;9.80;99.90
11840;DHT22;5979;50.800;4.904;2023-11-21T00:54:01;9.70;99.90
11840;DHT22;5979;50.800;4.904;2023-11-21T00:56:27;9.80;99.90
11840;DHT22;5979;50.800;4.904;2023-11-21T00:58:53;9.80;99.90
11840;DHT22;5979;50.800;4.904;2023-11-21T01:01:20;9.80;99.90
11840;DHT22;5979;50.800;4.904;2023-11-21T01:03:47;9.80;99.90
11840;DHT22;5979;50.800;4.904;2023-11-21T01:06:14;9.80;99.90
11840;DHT22;5979;50.800;4.904;2023-11-21T01:08:40;9.70;99.90
11840;DHT22;5979;50.800;4.904;2023-11-21T01:11:06;9.70;99.90
11840;DHT22;5979;50.800;4.904;2023-11-21T01:13:34;9.70;99.90
11840;DHT22;5979;50.800;4.904;2023-11-21T01:16:00;9.70;99.90
11840;DHT22;5979;50.800;4.904;2023-11-21T01:18:26;9.70;99.90
11840;DHT22;5979;50.800;4.904;2023-11-21T01:20:52;9.70;99.90
11840;DHT22;5979;50.800;4.904;2023-11-21T01:23:22;9.70;99.90
11840;DHT22;5979;50.800;4.904;2023-11-21T01:25:48;9.70;99.90
11840;DHT22;5979;50.800;4.904;2023-11-21T01:28:14;9.70;99.90
11840;DHT22;5979;50.800;4.904;2023-11-21T01:30:40;9.60;99.90
11840;DHT22;5979;50.800;4.904;2023-11-21T01:33:06;9.60;99.90
11840;DHT22;5979;50.800;4.904;2023-11-21T01:35:31;9.50;99.90
11840;DHT22;5979;50.800;4.904;2023-11-21T01:37:57;9.50;99.90
11840;DHT22;5979;50.800;4.904;2023-11-21T01:40:23;9.40;99.90
11840;DHT22;5979;50.800;4.904;2023-11-21T01:42:49;9.30;99.90
11840;DHT22;5979;50.800;4.904;2023-11-21T01:45:15;9.20;99.90
11840;DHT22;5979;50.800;4.904;2023-11-21T01:47:42;9.20;99.90
11840;DHT22;5979;50.800;4.904;2023-11-21T01:50:08;9.10;99.90
11840;DHT22;5979;50.800;4.904;2023-11-21T01:52:38;9.10;99.90
11840;DHT22;5979;50.800;4.904;2023-11-21T01:55:06;9.00;99.90
11840;DHT22;5979;50.800;4.904;2023-11-21T01:57:35;9.00;99.90
11840;DHT22;5979;50.800;4.904;2023-11-21T02:00:02;8.90;99.90
11840;DHT22;5979;50.800;4.904;2023-11-21T02:02:43;8.90;99.90
11840;DHT22;5979;50.800;4.904;2023-11-21T02:05:10;8.90;99.90
11840;DHT22;5979;50.800;4.904;2023-11-21T02:07:38;8.90;99.90
11840;DHT22;5979;50.800;4.904;2023-11-21T02:10:05;8.90;99.90
11840;DHT22;5979;50.800;4.904;2023-11-21T02:12:31;8.90;99.90
11840;DHT22;5979;50.800;4.904;2023-11-21T02:14:57;8.90;99.90
11840;DHT22;5979;50.800;4.904;2023-11-21T02:17:22;8.90;99.90
11840;DHT22;5979;50.800;4.904;2023-11-21T02:19:48;8.90;99.90
11840;DHT22;5979;50.800;4.904;2023-11-21T02:22:17;8.90;99.90
11840;DHT22;5979;50.800;4.904;2023-11-21T02:24:45;8.90;99.90
11840;DHT22;5979;50.800;4.904;2023-11-21T02:27:12;8.80;99.90
11840;DHT22;5979;50.800;4.904;2023-11-21T02:29:38;8.80;99.90
11840;DHT22;5979;50.800;4.904;2023-11-21T02:32:04;8.80;99.90
11840;DHT22;5979;50.800;4.904;2023-11-21T02:34:31;8.90;99.90
11840;DHT22;5979;50.800;4.904;2023-11-21T02:36:56;8.90;99.90
11840;DHT22;5979;50.800;4.904;2023-11-21T02:39:22;8.90;99.90
11840;DHT22;5979;50.800;4.904;2023-11-21T02:41:49;8.90;99.90
11840;DHT22;5979;50.800;4.904;2023-11-21T02:44:15;8.90;99.90
11840;DHT22;5979;50.800;4.904;2023-11-21T02:46:41;8.90;99.90
11840;DHT22;5979;50.800;4.904;2023-11-21T02:49:07;9.00;99.90
11840;DHT22;5979;50.800;4.904;2023-11-21T02:51:36;8.90;99.90
11840;DHT22;5979;50.800;4.904;2023-11-21T02:54:04;8.90;99.90
11840;DHT22;5979;50.800;4.904;2023-11-21T02:56:32;8.90;99.90
11840;DHT22;5979;50.800;4.904;2023-11-21T02:59:00;8.90;99.90
11840;DHT22;5979;50.800;4.904;2023-11-21T03:01:26;8.90;99.90
11840;DHT22;5979;50.800;4.904;2023-11-21T03:03:53;8.90;99.90
11840;DHT22;5979;50.800;4.904;2023-11-21T03:06:22;8.80;99.90
11840;DHT22;5979;50.800;4.904;2023-11-21T03:08:48;8.80;99.90
11840;DHT22;5979;50.800;4.904;2023-11-21T03:11:14;8.70;99.90
11840;DHT22;5979;50.800;4.904;2023-11-21T03:13:40;8.70;99.90
11840;DHT22;5979;50.800;4.904;2023-11-21T03:16:10;8.70;99.90
11840;DHT22;5979;50.800;4.904;2023-11-21T03:18:37;8.70;99.90
11840;DHT22;5979;50.800;4.904;2023-11-21T03:21:07;8.70;99.90
11840;DHT22;5979;50.800;4.904;2023-11-21T03:23:36;8.70;99.90
11840;DHT22;5979;50.800;4.904;2023-11-21T03:26:02;8.70;99.90
11840;DHT22;5979;50.800;4.904;2023-11-21T03:28:28;8.70;99.90
11840;DHT22;5979;50.800;4.904;2023-11-21T03:30:55;8.80;99.90
11840;DHT22;5979;50.800;4.904;2023-11-21T03:33:21;8.80;99.90
11840;DHT22;5979;50.800;4.904;2023-11-21T03:35:48;8.80;99.90
11840;DHT22;5979;50.800;4.904;2023-11-21T03:38:13;8.80;99.90
11840;DHT22;5979;50.800;4.904;2023-11-21T03:40:39;8.80;99.90
11840;DHT22;5979;50.800;4.904;2023-11-21T03:43:05;8.80;99.90
11840;DHT22;5979;50.800;4.904;2023-11-21T03:45:32;8.80;99.90
11840;DHT22;5979;50.800;4.904;2023-11-21T03:47:57;8.80;99.90
11840;DHT22;5979;50.800;4.904;2023-11-21T03:50:23;8.80;99.90
11840;DHT22;5979;50.800;4.904;2023-11-21T03:52:49;8.70;99.90
11840;DHT22;5979;50.800;4.904;2023-11-21T03:55:14;8.70;99.90
11840;DHT22;5979;50.800;4.904;2023-11-21T03:57:40;8.70;99.90
11840;DHT22;5979;50.800;4.904;2023-11-21T04:00:07;8.70;99.90
11840;DHT22;5979;50.800;4.904;2023-11-21T04:02:35;8.70;99.90
11840;DHT22;5979;50.800;4.904;2023-11-21T04:05:01;8.70;99.90
11840;DHT22;5979;50.800;4.904;2023-11-21T04:07:27;8.70;99.90
11840;DHT22;5979;50.800;4.904;2023-11-21T04:09:52;8.70;99.90
11840;DHT22;5979;50.800;4.904;2023-11-21T04:12:19;8.70;99.90
11840;DHT22;5979;50.800;4.904;2023-11-21T04:14:45;8.60;99.90
11840;DHT22;5979;50.800;4.904;2023-11-21T04:17:10;8.60;99.90
11840;DHT22;5979;50.800;4.904;2023-11-21T04:19:36;8.60;99.90
11840;DHT22;5979;50.800;4.904;2023-11-21T04:22:02;8.60;99.90
11840;DHT22;5979;50.800;4.904;2023-11-21T04:24:29;8.60;99.90
11840;DHT22;5979;50.800;4.904;2023-11-21T04:26:55;8.50;99.90
11840;DHT22;5979;50.800;4.904;2023-11-21T04:29:20;8.60;99.90
11840;DHT22;5979;50.800;4.904;2023-11-21T04:31:46;8.60;99.90
11840;DHT22;5979;50.800;4.904;2023-11-21T04:34:14;8.60;99.90
11840;DHT22;5979;50.800;4.904;2023-11-21T04:36:40;8.60;99.90
11840;DHT22;5979;50.800;4.904;2023-11-21T04:39:05;8.60;99.90
11840;DHT22;5979;50.800;4.904;2023-11-21T04:41:32;8.60;99.90
11840;DHT22;5979;50.800;4.904;2023-11-21T04:43:58;8.60;99.90
11840;DHT22;5979;50.800;4.904;2023-11-21T04:46:26;8.60;99.90
11840;DHT22;5979;50.800;4.904;2023-11-21T04:48:52;8.70;99.90
11840;DHT22;5979;50.800;4.904;2023-11-21T04:51:17;8.70;99.90
11840;DHT22;5979;50.800;4.904;2023-11-21T04:53:43;8.80;99.90
11840;DHT22;5979;50.800;4.904;2023-11-21T04:56:09;8.80;99.90
11840;DHT22;5979;50.800;4.904;2023-11-21T04:58:35;8.80;99.90
11840;DHT22;5979;50.800;4.904;2023-11-21T05:01:01;8.80;99.90
11840;DHT22;5979;50.800;4.904;2023-11-21T05:03:27;8.90;99.90
11840;DHT22;5979;50.800;4.904;2023-11-21T05:05:55;8.90;99.90
11840;DHT22;5979;50.800;4.904;2023-11-21T05:08:21;8.90;99.90
11840;DHT22;5979;50.800;4.904;2023-11-21T05:10:48;8.90;99.90
11840;DHT22;5979;50.800;4.904;2023-11-21T05:13:14;9.00;99.90
11840;DHT22;5979;50.800;4.904;2023-11-21T05:15:43;9.00;99.90
11840;DHT22;5979;50.800;4.904;2023-11-21T05:18:09;8.90;99.90
11840;DHT22;5979;50.800;4.904;2023-11-21T05:20:35;8.90;99.90
11840;DHT22;5979;50.800;4.904;2023-11-21T05:23:01;8.80;99.90
11840;DHT22;5979;50.800;4.904;2023-11-21T05:25:27;8.80;99.90
11840;DHT22;5979;50.800;4.904;2023-11-21T05:27:53;8.80;99.90
11840;DHT22;5979;50.800;4.904;2023-11-21T05:30:21;8.80;99.90
11840;DHT22;5979;50.800;4.904;2023-11-21T05:32:46;8.80;99.90
11840;DHT22;5979;50.800;4.904;2023-11-21T05:35:12;8.80;99.90
11840;DHT22;5979;50.800;4.904;2023-11-21T05:37:41;8.80;99.90
11840;DHT22;5979;50.800;4.904;2023-11-21T05:40:08;8.80;99.90
11840;DHT22;5979;50.800;4.904;2023-11-21T05:42:36;8.80;99.90
11840;DHT22;5979;50.800;4.904;2023-11-21T05:45:03;8.70;99.90
11840;DHT22;5979;50.800;4.904;2023-11-21T05:50:07;8.70;99.90
11840;DHT22;5979;50.800;4.904;2023-11-21T05:52:36;8.70;99.90
11840;DHT22;5979;50.800;4.904;2023-11-21T05:55:02;8.70;99.90
11840;DHT22;5979;50.800;4.904;2023-11-21T05:57:30;8.80;99.90
11840;DHT22;5979;50.800;4.904;2023-11-21T05:59:56;8.80;99.90
11840;DHT22;5979;50.800;4.904;2023-11-21T06:02:21;8.80;99.90
11840;DHT22;5979;50.800;4.904;2023-11-21T06:04:47;8.80;99.90
11840;DHT22;5979;50.800;4.904;2023-11-21T06:07:13;8.80;99.90
11840;DHT22;5979;50.800;4.904;2023-11-21T06:09:38;8.80;99.90
11840;DHT22;5979;50.800;4.904;2023-11-21T06:12:04;8.80;99.90
11840;DHT22;5979;50.800;4.904;2023-11-21T06:14:31;8.90;99.90
11840;DHT22;5979;50.800;4.904;2023-11-21T06:16:58;8.90;99.90
11840;DHT22;5979;50.800;4.904;2023-11-21T06:19:24;8.90;99.90
11840;DHT22;5979;50.800;4.904;2023-11-21T06:21:50;8.90;99.90
11840;DHT22;5979;50.800;4.904;2023-11-21T06:24:16;8.90;99.90
11840;DHT22;5979;50.800;4.904;2023-11-21T06:26:42;9.00;99.90
11840;DHT22;5979;50.800;4.904;2023-11-21T06:29:09;9.00;99.90
11840;DHT22;5979;50.800;4.904;2023-11-21T06:31:36;9.00;99.90
11840;DHT22;5979;50.800;4.904;2023-11-21T06:34:02;9.00;99.90
11840;DHT22;5979;50.800;4.904;2023-11-21T06:36:28;9.00;99.90
11840;DHT22;5979;50.800;4.904;2023-11-21T06:38:54;9.00;99.90
11840;DHT22;5979;50.800;4.904;2023-11-21T06:41:20;9.00;99.90
11840;DHT22;5979;50.800;4.904;2023-11-21T06:43:46;9.00;99.90
11840;DHT22;5979;50.800;4.904;2023-11-21T06:46:12;9.10;99.90
11840;DHT22;5979;50.800;4.904;2023-11-21T06:48:44;9.10;99.90
11840;DHT22;5979;50.800;4.904;2023-11-21T06:51:10;9.10;99.90
11840;DHT22;5979;50.800;4.904;2023-11-21T06:53:37;9.10;99.90
11840;DHT22;5979;50.800;4.904;2023-11-21T06:56:03;9.10;99.90
11840;DHT22;5979;50.800;4.904;2023-11-21T06:58:29;9.10;99.90
11840;DHT22;5979;50.800;4.904;2023-11-21T07:00:54;9.10;99.90
11840;DHT22;5979;50.800;4.904;2023-11-21T07:03:20;9.10;99.90
11840;DHT22;5979;50.800;4.904;2023-11-21T07:05:46;9.10;99.90
11840;DHT22;5979;50.800;4.904;2023-11-21T07:08:11;9.20;99.90
11840;DHT22;5979;50.800;4.904;2023-11-21T07:10:38;9.20;99.90
11840;DHT22;5979;50.800;4.904;2023-11-21T07:13:04;9.10;99.90
11840;DHT22;5979;50.800;4.904;2023-11-21T07:15:29;9.20;99.90
11840;DHT22;5979;50.800;4.904;2023-11-21T07:17:55;9.20;99.90
11840;DHT22;5979;50.800;4.904;2023-11-21T07:20:21;9.10;99.90
11840;DHT22;5979;50.800;4.904;2023-11-21T07:22:47;9.20;99.90
11840;DHT22;5979;50.800;4.904;2023-11-21T07:25:12;9.20;99.90
11840;DHT22;5979;50.800;4.904;2023-11-21T07:27:38;9.20;99.90
11840;DHT22;5979;50.800;4.904;2023-11-21T07:30:04;9.20;99.90
11840;DHT22;5979;50.800;4.904;2023-11-21T07:32:31;9.20;99.90
11840;DHT22;5979;50.800;4.904;2023-11-21T07:34:57;9.30;99.90
11840;DHT22;5979;50.800;4.904;2023-11-21T07:37:25;9.30;99.90
11840;DHT22;5979;50.800;4.904;2023-11-21T07:39:54;9.30;99.90
11840;DHT22;5979;50.800;4.904;2023-11-21T07:42:25;9.30;99.90
11840;DHT22;5979;50.800;4.904;2023-11-21T07:44:52;9.30;99.90
11840;DHT22;5979;50.800;4.904;2023-11-21T07:47:17;9.40;99.90
11840;DHT22;5979;50.800;4.904;2023-11-21T07:49:43;9.40;99.90
11840;DHT22;5979;50.800;4.904;2023-11-21T07:52:10;9.40;99.90
11840;DHT22;5979;50.800;4.904;2023-11-21T07:54:36;9.40;99.90
11840;DHT22;5979;50.800;4.904;2023-11-21T07:57:02;9.40;99.90
11840;DHT22;5979;50.800;4.904;2023-11-21T07:59:29;9.50;99.90
11840;DHT22;5979;50.800;4.904;2023-11-21T08:01:56;9.50;99.90
11840;DHT22;5979;50.800;4.904;2023-11-21T08:04:21;9.50;99.90
11840;DHT22;5979;50.800;4.904;2023-11-21T08:06:47;9.60;99.90
11840;DHT22;5979;50.800;4.904;2023-11-21T08:09:14;9.60;99.90
11840;DHT22;5979;50.800;4.904;2023-11-21T08:11:41;9.60;99.90
11840;DHT22;5979;50.800;4.904;2023-11-21T08:14:07;9.60;99.90
11840;DHT22;5979;50.800;4.904;2023-11-21T08:16:33;9.60;99.90
11840;DHT22;5979;50.800;4.904;2023-11-21T08:18:58;9.70;99.90
11840;DHT22;5979;50.800;4.904;2023-11-21T08:21:43;9.70;99.90
11840;DHT22;5979;50.800;4.904;2023-11-21T08:24:08;9.70;99.90
11840;DHT22;5979;50.800;4.904;2023-11-21T08:26:37;9.80;99.90
11840;DHT22;5979;50.800;4.904;2023-11-21T08:29:03;9.80;99.90
11840;DHT22;5979;50.800;4.904;2023-11-21T08:31:29;9.90;99.90
11840;DHT22;5979;50.800;4.904;2023-11-21T08:33:55;9.90;99.90
11840;DHT22;5979;50.800;4.904;2023-11-21T08:36:23;10.00;99.90
11840;DHT22;5979;50.800;4.904;2023-11-21T08:38:50;10.00;99.90
11840;DHT22;5979;50.800;4.904;2023-11-21T08:41:18;10.10;99.90
11840;DHT22;5979;50.800;4.904;2023-11-21T08:43:48;10.10;99.90
11840;DHT22;5979;50.800;4.904;2023-11-21T08:46:14;10.10;99.90
11840;DHT22;5979;50.800;4.904;2023-11-21T08:48:41;10.20;99.90
11840;DHT22;5979;50.800;4.904;2023-11-21T08:51:09;10.20;99.90
11840;DHT22;5979;50.800;4.904;2023-11-21T08:53:35;10.20;99.90
11840;DHT22;5979;50.800;4.904;2023-11-21T08:56:01;10.30;99.90
11840;DHT22;5979;50.800;4.904;2023-11-21T08:58:27;10.40;99.90
11840;DHT22;5979;50.800;4.904;2023-11-21T09:00:53;10.40;99.90
11840;DHT22;5979;50.800;4.904;2023-11-21T09:03:18;10.50;99.90
11840;DHT22;5979;50.800;4.904;2023-11-21T09:05:44;10.60;99.90
11840;DHT22;5979;50.800;4.904;2023-11-21T09:08:10;10.70;99.90
11840;DHT22;5979;50.800;4.904;2023-11-21T09:10:36;10.70;99.90
11840;DHT22;5979;50.800;4.904;2023-11-21T09:13:02;10.80;99.90
11840;DHT22;5979;50.800;4.904;2023-11-21T09:15:28;10.80;99.90
11840;DHT22;5979;50.800;4.904;2023-11-21T09:17:54;10.90;99.90
11840;DHT22;5979;50.800;4.904;2023-11-21T09:20:19;10.80;99.90
11840;DHT22;5979;50.800;4.904;2023-11-21T09:22:48;10.90;99.90
11840;DHT22;5979;50.800;4.904;2023-11-21T09:25:15;10.90;99.90
11840;DHT22;5979;50.800;4.904;2023-11-21T09:27:41;11.00;99.90
11840;DHT22;5979;50.800;4.904;2023-11-21T09:33:53;11.00;99.90
11840;DHT22;5979;50.800;4.904;2023-11-21T09:36:19;11.00;99.90
11840;DHT22;5979;50.800;4.904;2023-11-21T09:38:44;11.00;99.90
11840;DHT22;5979;50.800;4.904;2023-11-21T09:41:21;11.10;99.90
11840;DHT22;5979;50.800;4.904;2023-11-21T09:43:52;11.20;99.90
11840;DHT22;5979;50.800;4.904;2023-11-21T09:46:21;11.20;99.90
11840;DHT22;5979;50.800;4.904;2023-11-21T09:48:51;11.30;99.90
11840;DHT22;5979;50.800;4.904;2023-11-21T09:51:20;11.30;99.90
11840;DHT22;5979;50.800;4.904;2023-11-21T09:53:50;11.30;99.90
11840;DHT22;5979;50.800;4.904;2023-11-21T09:56:18;11.30;99.90
11840;DHT22;5979;50.800;4.904;2023-11-21T09:58:51;11.30;99.90
11840;DHT22;5979;50.800;4.904;2023-11-21T10:01:19;11.30;99.90
11840;DHT22;5979;50.800;4.904;2023-11-21T10:03:45;11.30;99.90
11840;DHT22;5979;50.800;4.904;2023-11-21T10:06:13;11.30;99.90
11840;DHT22;5979;50.800;4.904;2023-11-21T10:08:41;11.30;99.90
11840;DHT22;5979;50.800;4.904;2023-11-21T10:11:08;11.30;99.90
11840;DHT22;5979;50.800;4.904;2023-11-21T10:13:37;11.30;99.90
11840;DHT22;5979;50.800;4.904;2023-11-21T10:16:05;11.30;99.90
11840;DHT22;5979;50.800;4.904;2023-11-21T10:18:33;11.30;99.90
11840;DHT22;5979;50.800;4.904;2023-11-21T10:21:00;11.20;99.90
11840;DHT22;5979;50.800;4.904;2023-11-21T10:23:26;11.20;99.90
11840;DHT22;5979;50.800;4.904;2023-11-21T10:25:52;11.20;99.90
11840;DHT22;5979;50.800;4.904;2023-11-21T10:28:18;11.20;99.90
11840;DHT22;5979;50.800;4.904;2023-11-21T10:30:46;11.20;99.90
11840;DHT22;5979;50.800;4.904;2023-11-21T10:33:11;11.20;99.90
11840;DHT22;5979;50.800;4.904;2023-11-21T10:35:48;11.30;99.90
11840;DHT22;5979;50.800;4.904;2023-11-21T10:38:19;11.40;99.90
11840;DHT22;5979;50.800;4.904;2023-11-21T10:40:46;11.40;99.90
11840;DHT22;5979;50.800;4.904;2023-11-21T10:43:13;11.40;99.90
11840;DHT22;5979;50.800;4.904;2023-11-21T10:45:41;11.40;99.90
11840;DHT22;5979;50.800;4.904;2023-11-21T10:48:13;11.40;99.90
11840;DHT22;5979;50.800;4.904;2023-11-21T10:50:46;11.30;99.90
11840;DHT22;5979;50.800;4.904;2023-11-21T10:53:12;11.30;99.90
11840;DHT22;5979;50.800;4.904;2023-11-21T10:55:38;11.20;99.90
11840;DHT22;5979;50.800;4.904;2023-11-21T10:58:04;11.20;99.90
11840;DHT22;5979;50.800;4.904;2023-11-21T11:00:32;11.10;99.90
11840;DHT22;5979;50.800;4.904;2023-11-21T11:03:17;11.10;99.90
11840;DHT22;5979;50.800;4.904;2023-11-21T11:05:44;11.10;99.90
11840;DHT22;5979;50.800;4.904;2023-11-21T11:08:19;11.10;99.90
11840;DHT22;5979;50.800;4.904;2023-11-21T11:10:50;11.10;99.90
11840;DHT22;5979;50.800;4.904;2023-11-21T11:13:16;11.20;99.90
11840;DHT22;5979;50.800;4.904;2023-11-21T11:15:42;11.20;99.90
11840;DHT22;5979;50.800;4.904;2023-11-21T11:18:10;11.30;99.90
11840;DHT22;5979;50.800;4.904;2023-11-21T11:20:37;11.40;99.90
11840;DHT22;5979;50.800;4.904;2023-11-21T11:26:07;11.60;99.90
11840;DHT22;5979;50.800;4.904;2023-11-21T11:34:14;11.50;99.90
11840;DHT22;5979;50.800;4.904;2023-11-21T11:37:00;11.50;99.90
11840;DHT22;5979;50.800;4.904;2023-11-21T11:39:39;11.60;99.90
11840;DHT22;5979;50.800;4.904;2023-11-21T11:42:12;11.50;99.90
11840;DHT22;5979;50.800;4.904;2023-11-21T11:47:25;11.40;99.90
11840;DHT22;5979;50.800;4.904;2023-11-21T11:50:10;11.40;99.90
11840;DHT22;5979;50.800;4.904;2023-11-21T11:52:43;11.40;99.90
11840;DHT22;5979;50.800;4.904;2023-11-21T11:55:14;11.40;99.90
11840;DHT22;5979;50.800;4.904;2023-11-21T11:57:42;11.50;99.90
11840;DHT22;5979;50.800;4.904;2023-11-21T12:02:50;11.50;99.90
11840;DHT22;5979;50.800;4.904;2023-11-21T12:05:23;11.50;99.90
11840;DHT22;5979;50.800;4.904;2023-11-21T12:07:57;11.40;99.90
11840;DHT22;5979;50.800;4.904;2023-11-21T12:10:28;11.40;99.90
11840;DHT22;5979;50.800;4.904;2023-11-21T12:12:58;11.40;99.90
11840;DHT22;5979;50.800;4.904;2023-11-21T12:15:25;11.40;99.90
11840;DHT22;5979;50.800;4.904;2023-11-21T12:17:51;11.40;99.90
11840;DHT22;5979;50.800;4.904;2023-11-21T12:20:23;11.30;99.90
11840;DHT22;5979;50.800;4.904;2023-11-21T12:25:24;11.30;99.90
11840;DHT22;5979;50.800;4.904;2023-11-21T12:27:51;11.30;99.90
11840;DHT22;5979;50.800;4.904;2023-11-21T12:30:22;11.20;99.90
11840;DHT22;5979;50.800;4.904;2023-11-21T12:32:49;11.20;99.90
11840;DHT22;5979;50.800;4.904;2023-11-21T12:35:17;11.20;99.90
11840;DHT22;5979;50.800;4.904;2023-11-21T12:37:46;11.20;99.90
11840;DHT22;5979;50.800;4.904;2023-11-21T12:40:13;11.20;99.90
11840;DHT22;5979;50.800;4.904;2023-11-21T12:42:41;11.20;99.90
11840;DHT22;5979;50.800;4.904;2023-11-21T12:47:53;11.20;99.90
11840;DHT22;5979;50.800;4.904;2023-11-21T12:50:25;11.20;99.90
11840;DHT22;5979;50.800;4.904;2023-11-21T12:52:57;11.20;99.90
11840;DHT22;5979;50.800;4.904;2023-11-21T12:55:24;11.30;99.90
11840;DHT22;5979;50.800;4.904;2023-11-21T12:57:55;11.30;99.90
11840;DHT22;5979;50.800;4.904;2023-11-21T13:00:29;11.30;99.90
11840;DHT22;5979;50.800;4.904;2023-11-21T13:02:58;11.40;99.90
11840;DHT22;5979;50.800;4.904;2023-11-21T13:05:32;11.50;99.90
11840;DHT22;5979;50.800;4.904;2023-11-21T13:08:00;11.50;99.90
11840;DHT22;5979;50.800;4.904;2023-11-21T13:10:29;11.50;99.90
11840;DHT22;5979;50.800;4.904;2023-11-21T13:13:00;11.60;99.90
11840;DHT22;5979;50.800;4.904;2023-11-21T13:15:29;11.60;99.90
11840;DHT22;5979;50.800;4.904;2023-11-21T13:17:57;11.70;99.90
11840;DHT22;5979;50.800;4.904;2023-11-21T13:20:26;11.70;99.90
11840;DHT22;5979;50.800;4.904;2023-11-21T13:25:23;11.60;99.90
11840;DHT22;5979;50.800;4.904;2023-11-21T13:27:49;11.60;99.90
11840;DHT22;5979;50.800;4.904;2023-11-21T13:30:16;11.70;99.90
11840;DHT22;5979;50.800;4.904;2023-11-21T13:32:45;11.70;99.90
11840;DHT22;5979;50.800;4.904;2023-11-21T13:35:20;11.70;99.90
11840;DHT22;5979;50.800;4.904;2023-11-21T13:37:57;11.70;99.90
11840;DHT22;5979;50.800;4.904;2023-11-21T13:40:26;11.60;99.90
11840;DHT22;5979;50.800;4.904;2023-11-21T13:42:53;11.60;99.90
11840;DHT22;5979;50.800;4.904;2023-11-21T13:45:20;11.70;99.90
11840;DHT22;5979;50.800;4.904;2023-11-21T13:47:48;11.60;99.90
11840;DHT22;5979;50.800;4.904;2023-11-21T13:50:17;11.60;99.90
11840;DHT22;5979;50.800;4.904;2023-11-21T13:52:48;11.60;99.90
11840;DHT22;5979;50.800;4.904;2023-11-21T13:55:14;11.50;99.90
11840;DHT22;5979;50.800;4.904;2023-11-21T13:57:44;11.50;99.90
11840;DHT22;5979;50.800;4.904;2023-11-21T14:00:12;11.50;99.90
11840;DHT22;5979;50.800;4.904;2023-11-21T14:02:58;11.40;99.90
11840;DHT22;5979;50.800;4.904;2023-11-21T14:05:31;11.40;99.90
11840;DHT22;5979;50.800;4.904;2023-11-21T14:07:59;11.40;99.90
11840;DHT22;5979;50.800;4.904;2023-11-21T14:10:31;11.40;99.90
11840;DHT22;5979;50.800;4.904;2023-11-21T14:13:08;11.40;99.90
11840;DHT22;5979;50.800;4.904;2023-11-21T14:15:38;11.40;99.90
11840;DHT22;5979;50.800;4.904;2023-11-21T14:18:08;11.30;99.90
11840;DHT22;5979;50.800;4.904;2023-11-21T14:20:36;11.30;99.90
11840;DHT22;5979;50.800;4.904;2023-11-21T14:23:03;11.30;99.90
11840;DHT22;5979;50.800;4.904;2023-11-21T14:25:36;11.20;99.90
11840;DHT22;5979;50.800;4.904;2023-11-21T14:28:03;11.20;99.90
11840;DHT22;5979;50.800;4.904;2023-11-21T14:30:30;11.20;99.90
11840;DHT22;5979;50.800;4.904;2023-11-21T14:32:58;11.10;99.90
11840;DHT22;5979;50.800;4.904;2023-11-21T14:35:24;11.10;99.90
11840;DHT22;5979;50.800;4.904;2023-11-21T14:37:52;11.10;99.90
11840;DHT22;5979;50.800;4.904;2023-11-21T14:40:18;11.10;99.90
11840;DHT22;5979;50.800;4.904;2023-11-21T14:42:48;11.20;99.90
11840;DHT22;5979;50.800;4.904;2023-11-21T14:45:13;11.20;99.90
11840;DHT22;5979;50.800;4.904;2023-11-21T14:47:45;11.20;99.90
11840;DHT22;5979;50.800;4.904;2023-11-21T14:50:17;11.10;99.90
11840;DHT22;5979;50.800;4.904;2023-11-21T14:53:00;11.20;99.90
11840;DHT22;5979;50.800;4.904;2023-11-21T14:55:30;11.10;99.90
11840;DHT22;5979;50.800;4.904;2023-11-21T14:58:22;11.10;99.90
11840;DHT22;5979;50.800;4.904;2023-11-21T15:00:58;11.10;99.90
11840;DHT22;5979;50.800;4.904;2023-11-21T15:03:25;11.10;99.90
11840;DHT22;5979;50.800;4.904;2023-11-21T15:05:57;11.10;99.90
11840;DHT22;5979;50.800;4.904;2023-11-21T15:08:24;11.10;99.90
11840;DHT22;5979;50.800;4.904;2023-11-21T15:10:57;11.10;99.90
11840;DHT22;5979;50.800;4.904;2023-11-21T15:13:23;11.20;99.90
11840;DHT22;5979;50.800;4.904;2023-11-21T15:15:51;11.20;99.90
11840;DHT22;5979;50.800;4.904;2023-11-21T15:18:20;11.20;99.90
11840;DHT22;5979;50.800;4.904;2023-11-21T15:20:46;11.20;99.90
11840;DHT22;5979;50.800;4.904;2023-11-21T15:23:11;11.30;99.90
11840;DHT22;5979;50.800;4.904;2023-11-21T15:25:42;11.30;99.90
11840;DHT22;5979;50.800;4.904;2023-11-21T15:28:08;11.30;99.90
11840;DHT22;5979;50.800;4.904;2023-11-21T15:30:34;11.30;99.90
11840;DHT22;5979;50.800;4.904;2023-11-21T15:33:00;11.30;99.90
11840;DHT22;5979;50.800;4.904;2023-11-21T15:35:26;11.30;99.90
11840;DHT22;5979;50.800;4.904;2023-11-21T15:37:54;11.30;99.90
11840;DHT22;5979;50.800;4.904;2023-11-21T15:40:24;11.30;99.90
11840;DHT22;5979;50.800;4.904;2023-11-21T15:42:50;11.20;99.90
11840;DHT22;5979;50.800;4.904;2023-11-21T15:45:16;11.20;99.90
11840;DHT22;5979;50.800;4.904;2023-11-21T15:47:44;11.20;99.90
11840;DHT22;5979;50.800;4.904;2023-11-21T15:50:10;11.10;99.90
11840;DHT22;5979;50.800;4.904;2023-11-21T15:52:36;11.10;99.90
11840;DHT22;5979;50.800;4.904;2023-11-21T15:55:02;11.00;99.90
11840;DHT22;5979;50.800;4.904;2023-11-21T15:57:28;11.00;99.90
11840;DHT22;5979;50.800;4.904;2023-11-21T15:59:54;11.00;99.90
11840;DHT22;5979;50.800;4.904;2023-11-21T16:02:19;10.90;99.90
11840;DHT22;5979;50.800;4.904;2023-11-21T16:04:45;10.90;99.90
11840;DHT22;5979;50.800;4.904;2023-11-21T16:07:11;10.90;99.90
11840;DHT22;5979;50.800;4.904;2023-11-21T16:09:37;10.90;99.90
11840;DHT22;5979;50.800;4.904;2023-11-21T16:12:05;10.90;99.90
11840;DHT22;5979;50.800;4.904;2023-11-21T16:14:33;10.90;99.90
11840;DHT22;5979;50.800;4.904;2023-11-21T16:17:05;10.80;99.90
11840;DHT22;5979;50.800;4.904;2023-11-21T16:19:34;10.80;99.90
11840;DHT22;5979;50.800;4.904;2023-11-21T16:22:00;10.80;99.90
11840;DHT22;5979;50.800;4.904;2023-11-21T16:24:27;10.80;99.90